createdAt,value
2019-01-09T00:00:57.729Z,99681.39
2019-01-09T00:03:22.200Z,99684.40
2019-01-09T00:05:46.646Z,99686.54
2019-01-09T00:08:11.035Z,99697.47
2019-01-09T00:10:35.437Z,99698.77
2019-01-09T00:12:59.818Z,99690.85
2019-01-09T00:15:24.239Z,99701.94
2019-01-09T00:17:48.720Z,99698.55
2019-01-09T00:20:13.185Z,99698.30
2019-01-09T00:22:37.605Z,99706.91
2019-01-09T00:25:02.041Z,99704.30
2019-01-09T00:27:26.480Z,99710.63
2019-01-09T00:29:50.899Z,99707.86
2019-01-09T00:32:15.285Z,99711.59
2019-01-09T00:34:39.680Z,99723.14
2019-01-09T00:37:04.156Z,99724.05
2019-01-09T00:39:28.552Z,99727.27
2019-01-09T00:41:53.091Z,99734.83
2019-01-09T00:44:17.551Z,99749.59
2019-01-09T00:46:42.027Z,99736.17
2019-01-09T00:49:06.424Z,99736.41
2019-01-09T00:51:30.959Z,99743.92
2019-01-09T00:53:55.433Z,99753.61
2019-01-09T00:56:19.902Z,99761.85
2019-01-09T00:58:44.371Z,99756.17
2019-01-09T01:01:08.890Z,99758.57
2019-01-09T01:03:52.665Z,99762.27
2019-01-09T01:06:52.729Z,99765.42
2019-01-09T01:09:47.176Z,99757.90
2019-01-09T01:12:29.547Z,99769.23
2019-01-09T01:15:15.891Z,99767.34
2019-01-09T01:17:57.764Z,99775.37
2019-01-09T01:20:37.148Z,99766.55
2019-01-09T01:23:34.339Z,99785.69
2019-01-09T01:26:25.627Z,99787.87
2019-01-09T01:29:09.518Z,99790.66
2019-01-09T01:31:54.992Z,99785.98
2019-01-09T01:34:25.124Z,99792.50
2019-01-09T01:37:14.903Z,99798.63
2019-01-09T01:39:54.309Z,99802.81
2019-01-09T01:42:39.661Z,99804.60
2019-01-09T01:45:23.610Z,99806.97
2019-01-09T01:48:23.694Z,99797.80
2019-01-09T01:51:09.054Z,99804.66
2019-01-09T01:53:51.107Z,99819.60
2019-01-09T01:56:18.573Z,99821.60
2019-01-09T01:58:57.932Z,99833.67
2019-01-09T02:01:46.107Z,99833.91
2019-01-09T02:04:25.058Z,99838.21
2019-01-09T02:07:09.956Z,99850.01
2019-01-09T02:10:03.741Z,99841.69
2019-01-09T02:12:49.018Z,99846.70
2019-01-09T02:15:31.149Z,99848.44
2019-01-09T02:18:04.520Z,99849.73
2019-01-09T02:20:57.543Z,99859.41
2019-01-09T02:23:36.985Z,99854.70
2019-01-09T02:26:21.777Z,99858.41
2019-01-09T02:28:58.280Z,99864.67
2019-01-09T02:31:25.701Z,99864.70
2019-01-09T02:33:50.107Z,99861.72
2019-01-09T02:36:14.511Z,99868.24
2019-01-09T02:38:38.917Z,99871.05
2019-01-09T02:41:03.299Z,99874.50
2019-01-09T02:43:27.685Z,99871.75
2019-01-09T02:45:52.080Z,99877.67
2019-01-09T02:48:16.455Z,99873.77
2019-01-09T02:50:40.865Z,99881.70
2019-01-09T02:53:05.254Z,99875.65
2019-01-09T02:55:29.735Z,99862.92
2019-01-09T02:57:57.012Z,99880.39
2019-01-09T03:00:20.230Z,99876.60
2019-01-09T03:02:44.588Z,99875.99
2019-01-09T03:05:09.080Z,99826.53
2019-01-09T03:07:33.576Z,99828.53
2019-01-09T03:09:57.954Z,99875.77
2019-01-09T03:12:22.337Z,99884.91
2019-01-09T03:14:46.715Z,99875.26
2019-01-09T03:17:11.110Z,99884.16
2019-01-09T03:19:35.502Z,99883.60
2019-01-09T03:21:59.898Z,99889.64
2019-01-09T03:24:24.288Z,99881.88
2019-01-09T03:26:48.710Z,99902.80
2019-01-09T03:29:13.097Z,99898.88
2019-01-09T03:31:39.151Z,99894.30
2019-01-09T03:34:03.520Z,99897.64
2019-01-09T03:36:33.037Z,99898.14
2019-01-09T03:38:54.077Z,99893.14
2019-01-09T03:41:18.470Z,99894.89
2019-01-09T03:43:42.893Z,99889.56
2019-01-09T03:46:07.286Z,99899.48
2019-01-09T03:48:31.702Z,99895.55
2019-01-09T03:50:56.080Z,99901.28
2019-01-09T03:53:20.494Z,99902.14
2019-01-09T03:55:44.885Z,99907.78
2019-01-09T03:58:09.367Z,99915.44
2019-01-09T04:00:33.762Z,99912.21
2019-01-09T04:02:58.138Z,99911.28
2019-01-09T04:05:22.545Z,99922.83
2019-01-09T04:07:46.930Z,99912.13
2019-01-09T04:10:11.326Z,99921.19
2019-01-09T04:12:35.711Z,99928.42
2019-01-09T04:15:00.487Z,99923.52
2019-01-09T04:17:24.923Z,99930.76
2019-01-09T04:19:49.385Z,99932.16
2019-01-09T04:22:13.760Z,99922.45
2019-01-09T04:24:38.266Z,99928.86
2019-01-09T04:27:02.658Z,99931.17
2019-01-09T04:29:27.035Z,99933.13
2019-01-09T04:31:51.429Z,99928.05
2019-01-09T04:34:15.812Z,99932.22
2019-01-09T04:36:40.255Z,99939.87
2019-01-09T04:39:06.247Z,99934.88
2019-01-09T04:41:30.657Z,99940.30
2019-01-09T04:43:55.052Z,99941.39
2019-01-09T04:46:19.460Z,99945.80
2019-01-09T04:48:43.834Z,99938.62
2019-01-09T04:51:08.256Z,99945.72
2019-01-09T04:53:32.643Z,99948.76
2019-01-09T04:55:57.046Z,99940.26
2019-01-09T04:58:21.454Z,99940.03
2019-01-09T05:00:45.839Z,99944.11
2019-01-09T05:03:10.241Z,99956.94
2019-01-09T05:05:34.611Z,99958.72
2019-01-09T05:07:59.022Z,99958.86
2019-01-09T05:10:23.404Z,99958.67
2019-01-09T05:12:47.843Z,99954.80
2019-01-09T05:15:12.238Z,99959.25
2019-01-09T05:17:36.628Z,99966.14
2019-01-09T05:20:01.036Z,99963.89
2019-01-09T05:22:25.431Z,99973.66
2019-01-09T05:24:49.849Z,99983.19
2019-01-09T05:27:14.242Z,99976.48
2019-01-09T05:29:38.658Z,99973.27
2019-01-09T05:32:03.053Z,99974.97
2019-01-09T05:34:27.455Z,99987.91
2019-01-09T05:36:51.863Z,99974.49
2019-01-09T05:39:16.289Z,99972.77
2019-01-09T05:41:40.687Z,99983.53
2019-01-09T05:44:05.085Z,99981.52
2019-01-09T05:46:29.490Z,99986.13
2019-01-09T05:48:53.871Z,99984.35
2019-01-09T05:51:18.276Z,99992.02
2019-01-09T05:53:42.673Z,99976.70
2019-01-09T05:56:07.112Z,99991.09
2019-01-09T05:58:31.496Z,99996.56
2019-01-09T06:00:55.895Z,99993.70
2019-01-09T06:03:20.286Z,99999.30
2019-01-09T06:05:44.667Z,99999.23
2019-01-09T06:08:09.059Z,100006.85
2019-01-09T06:10:33.459Z,100016.36
2019-01-09T06:12:57.864Z,100014.45
2019-01-09T06:15:22.248Z,100015.58
2019-01-09T06:17:46.669Z,100024.11
2019-01-09T06:20:11.069Z,100021.39
2019-01-09T06:22:35.474Z,100032.73
2019-01-09T06:24:59.859Z,100048.93
2019-01-09T06:27:24.301Z,100044.41
2019-01-09T06:29:48.702Z,100044.14
2019-01-09T06:32:13.096Z,100047.03
2019-01-09T06:34:37.513Z,100047.77
2019-01-09T06:37:01.898Z,100009.41
2019-01-09T06:39:26.321Z,100051.44
2019-01-09T06:41:50.729Z,100063.78
2019-01-09T06:44:15.136Z,100070.94
2019-01-09T06:46:39.531Z,100081.17
2019-01-09T06:49:03.967Z,100076.23
2019-01-09T06:51:28.352Z,100081.20
2019-01-09T06:53:52.755Z,100087.92
2019-01-09T06:56:17.182Z,100084.09
2019-01-09T06:58:41.821Z,100095.76
2019-01-09T07:01:06.241Z,100103.35
2019-01-09T07:03:30.647Z,100108.66
2019-01-09T07:05:55.052Z,100102.19
2019-01-09T07:08:19.466Z,100112.14
2019-01-09T07:10:43.876Z,100115.56
2019-01-09T07:13:08.261Z,100117.12
2019-01-09T07:15:35.076Z,100126.94
2019-01-09T07:17:59.462Z,100121.23
2019-01-09T07:20:23.841Z,100129.66
2019-01-09T07:22:48.250Z,100133.33
2019-01-09T07:25:12.710Z,100131.63
2019-01-09T07:27:37.127Z,100123.02
2019-01-09T07:30:01.529Z,100133.50
2019-01-09T07:32:25.948Z,100123.98
2019-01-09T07:34:50.341Z,100131.44
2019-01-09T07:37:14.773Z,100132.45
2019-01-09T07:39:39.173Z,100139.47
2019-01-09T07:42:03.595Z,100147.83
2019-01-09T07:44:27.997Z,100082.47
2019-01-09T07:46:52.433Z,100139.48
2019-01-09T07:49:16.785Z,100143.00
2019-01-09T07:51:41.180Z,100142.80
2019-01-09T07:54:05.600Z,100146.10
2019-01-09T07:56:29.980Z,100156.11
2019-01-09T07:58:54.477Z,100154.30
2019-01-09T08:01:18.863Z,100159.61
2019-01-09T08:03:43.267Z,100170.20
2019-01-09T08:06:07.659Z,100160.44
2019-01-09T08:08:32.078Z,100166.08
2019-01-09T08:10:56.465Z,100169.88
2019-01-09T08:13:20.865Z,100176.66
2019-01-09T08:15:45.291Z,100177.44
2019-01-09T08:18:09.700Z,100178.05
2019-01-09T08:20:34.139Z,100177.46
2019-01-09T08:22:58.519Z,100186.24
2019-01-09T08:25:22.934Z,100189.20
2019-01-09T08:27:47.340Z,100191.94
2019-01-09T08:30:11.885Z,100199.00
2019-01-09T08:32:36.264Z,100197.02
2019-01-09T08:35:00.661Z,100202.90
2019-01-09T08:37:25.056Z,100208.77
2019-01-09T08:39:49.441Z,100210.73
2019-01-09T08:42:13.853Z,100218.77
2019-01-09T08:44:38.243Z,100226.20
2019-01-09T08:47:02.657Z,100231.11
2019-01-09T08:49:27.120Z,100243.86
2019-01-09T08:51:51.535Z,100250.89
2019-01-09T08:54:15.930Z,100254.56
2019-01-09T08:56:40.355Z,100253.80
2019-01-09T08:59:05.570Z,100256.00
2019-01-09T09:01:30.201Z,100259.11
2019-01-09T09:03:54.639Z,100253.80
2019-01-09T09:06:19.031Z,100260.27
2019-01-09T09:08:44.189Z,100266.76
2019-01-09T09:11:08.583Z,100263.64
2019-01-09T09:13:34.963Z,100271.26
2019-01-09T09:15:59.355Z,100265.58
2019-01-09T09:18:23.798Z,100284.41
2019-01-09T09:20:48.178Z,100282.64
2019-01-09T09:23:12.569Z,100284.20
2019-01-09T09:25:36.973Z,100285.16
2019-01-09T09:28:01.355Z,100294.53
2019-01-09T09:30:25.767Z,100288.70
2019-01-09T09:32:50.172Z,100293.55
2019-01-09T09:35:14.572Z,100305.17
2019-01-09T09:37:38.974Z,100310.45
2019-01-09T09:40:04.356Z,100312.79
2019-01-09T09:42:28.749Z,100307.87
2019-01-09T09:44:53.194Z,100318.87
2019-01-09T09:47:17.597Z,100314.36
2019-01-09T09:49:42.001Z,100322.02
2019-01-09T09:52:06.492Z,100321.63
2019-01-09T09:54:30.896Z,100321.63
2019-01-09T09:56:55.321Z,100328.07
2019-01-09T09:59:19.704Z,100338.44
2019-01-09T10:01:44.115Z,100341.23
2019-01-09T10:04:08.522Z,100345.30
2019-01-09T10:06:32.959Z,100342.41
2019-01-09T10:08:57.335Z,100352.59
2019-01-09T10:11:21.718Z,100354.94
2019-01-09T10:13:46.158Z,100351.99
2019-01-09T10:16:10.548Z,100359.26
2019-01-09T10:18:34.954Z,100354.16
2019-01-09T10:20:59.707Z,100354.92
2019-01-09T10:23:24.126Z,100360.83
2019-01-09T10:25:48.525Z,100366.73
2019-01-09T10:28:12.934Z,100368.63
2019-01-09T10:30:37.325Z,100362.76
2019-01-09T10:33:01.736Z,100364.77
2019-01-09T10:35:26.108Z,100372.80
2019-01-09T10:37:50.579Z,100367.30
2019-01-09T10:40:20.256Z,100374.55
2019-01-09T10:42:44.669Z,100376.09
2019-01-09T10:45:12.366Z,100375.53
2019-01-09T10:47:36.750Z,100376.48
2019-01-09T10:50:01.183Z,100382.58
2019-01-09T10:52:25.584Z,100381.23
2019-01-09T10:54:49.989Z,100381.80
2019-01-09T10:57:14.381Z,100382.97
2019-01-09T10:59:38.799Z,100378.28
2019-01-09T11:02:03.187Z,100391.02
2019-01-09T11:04:27.591Z,100392.02
2019-01-09T11:06:51.996Z,100398.28
2019-01-09T11:09:16.385Z,100393.77
2019-01-09T11:11:40.791Z,100398.06
2019-01-09T11:14:05.244Z,100395.53
2019-01-09T11:16:29.655Z,100404.77
2019-01-09T11:18:54.060Z,100404.95
2019-01-09T11:21:18.484Z,100398.67
2019-01-09T11:23:42.880Z,100404.34
2019-01-09T11:26:07.318Z,100398.88
2019-01-09T11:28:31.714Z,100401.22
2019-01-09T11:30:56.101Z,100403.19
2019-01-09T11:33:20.530Z,100413.19
2019-01-09T11:35:44.937Z,100408.48
2019-01-09T11:38:09.321Z,100410.23
2019-01-09T11:40:33.708Z,100414.37
2019-01-09T11:42:58.161Z,100406.68
2019-01-09T11:45:22.622Z,100414.75
2019-01-09T11:47:47.189Z,100415.53
2019-01-09T11:50:13.021Z,100411.02
2019-01-09T11:52:37.414Z,100417.30
2019-01-09T11:55:01.842Z,100423.58
2019-01-09T11:57:26.231Z,100424.10
2019-01-09T11:59:50.635Z,100425.73
2019-01-09T12:02:22.061Z,100422.20
2019-01-09T12:04:41.157Z,100425.11
2019-01-09T12:07:06.378Z,100424.55
2019-01-09T12:09:30.815Z,100431.80
2019-01-09T12:11:55.213Z,100428.28
2019-01-09T12:14:19.644Z,100428.28
2019-01-09T12:16:44.044Z,100432.80
2019-01-09T12:19:08.426Z,100433.55
2019-01-09T12:21:32.846Z,100439.97
2019-01-09T12:23:57.258Z,100442.01
2019-01-09T12:26:21.673Z,100447.70
2019-01-09T12:28:53.491Z,100455.17
2019-01-09T12:31:12.220Z,100447.13
2019-01-09T12:33:36.624Z,100453.58
2019-01-09T12:36:01.063Z,100459.05
2019-01-09T12:38:25.468Z,100458.30
2019-01-09T12:40:49.867Z,100471.23
2019-01-09T12:43:14.282Z,100470.02
2019-01-09T12:45:38.688Z,100473.95
2019-01-09T12:48:03.109Z,100470.66
2019-01-09T12:50:27.505Z,100476.34
2019-01-09T12:52:52.727Z,100478.50
2019-01-09T12:55:17.250Z,100482.59
2019-01-09T12:57:41.660Z,100487.91
2019-01-09T13:00:09.097Z,100493.39
2019-01-09T13:02:33.514Z,100492.21
2019-01-09T13:04:57.907Z,100499.27
2019-01-09T13:07:22.284Z,100505.17
2019-01-09T13:09:46.689Z,100504.00
2019-01-09T13:12:11.174Z,100505.73
2019-01-09T13:14:35.590Z,100502.84
2019-01-09T13:16:59.997Z,100509.11
2019-01-09T13:19:24.410Z,100513.98
2019-01-09T13:21:48.802Z,100524.01
2019-01-09T13:24:13.236Z,100525.59
2019-01-09T13:26:37.627Z,100530.47
2019-01-09T13:29:02.072Z,100528.52
2019-01-09T13:31:26.489Z,100528.31
2019-01-09T13:33:50.892Z,100535.20
2019-01-09T13:36:15.308Z,100535.92
2019-01-09T13:38:39.706Z,100549.92
2019-01-09T13:41:04.360Z,100545.56
2019-01-09T13:43:28.765Z,100549.45
2019-01-09T13:45:53.275Z,100554.57
2019-01-09T13:48:17.673Z,100558.72
2019-01-09T13:50:42.118Z,100562.09
2019-01-09T13:53:06.540Z,100557.91
2019-01-09T13:55:30.950Z,100565.71
2019-01-09T13:57:55.365Z,100566.98
2019-01-09T14:00:21.380Z,100571.81
2019-01-09T14:02:45.897Z,100573.64
2019-01-09T14:05:10.823Z,100583.30
2019-01-09T14:07:35.247Z,100584.62
2019-01-09T14:10:00.511Z,100589.19
2019-01-09T14:12:24.928Z,100593.49
2019-01-09T14:14:49.335Z,100601.09
2019-01-09T14:17:13.774Z,100595.34
2019-01-09T14:19:38.165Z,100609.66
2019-01-09T14:22:02.551Z,100611.51
2019-01-09T14:24:26.989Z,100621.31
2019-01-09T14:26:51.375Z,100629.47
2019-01-09T14:29:15.780Z,100631.02
2019-01-09T14:31:40.164Z,100631.42
2019-01-09T14:34:04.750Z,100634.91
2019-01-09T14:36:29.148Z,100642.42
2019-01-09T14:38:53.548Z,100645.48
2019-01-09T14:41:17.955Z,100643.50
2019-01-09T14:43:42.373Z,100646.81
2019-01-09T14:46:06.762Z,100650.19
2019-01-09T14:48:31.150Z,100657.95
2019-01-09T14:50:55.542Z,100663.30
2019-01-09T14:53:19.937Z,100662.87
2019-01-09T14:55:44.352Z,100668.32
2019-01-09T14:58:08.779Z,100662.25
2019-01-09T15:00:33.203Z,100670.70
2019-01-09T15:02:57.608Z,100671.09
2019-01-09T15:05:22.217Z,100674.88
2019-01-09T15:07:46.630Z,100673.38
2019-01-09T15:10:14.063Z,100679.70
2019-01-09T15:12:38.538Z,100678.70
2019-01-09T15:15:02.936Z,100685.13
2019-01-09T15:17:29.808Z,100681.02
2019-01-09T15:19:54.187Z,100683.97
2019-01-09T15:22:18.606Z,100691.97
2019-01-09T15:24:43.012Z,100685.62
2019-01-09T15:27:07.480Z,100694.91
2019-01-09T15:29:31.878Z,100693.02
2019-01-09T15:31:56.320Z,100702.15
2019-01-09T15:34:20.724Z,100701.61
2019-01-09T15:36:45.120Z,100700.89
2019-01-09T15:39:09.590Z,100701.78
2019-01-09T15:41:33.953Z,100703.45
2019-01-09T15:43:58.395Z,100701.34
2019-01-09T15:46:24.036Z,100700.48
2019-01-09T15:48:48.610Z,100702.58
2019-01-09T15:51:13.001Z,100710.56
2019-01-09T15:53:37.400Z,100704.56
2019-01-09T15:56:01.816Z,100710.56
2019-01-09T15:58:26.239Z,100719.27
2019-01-09T16:00:50.646Z,100714.97
2019-01-09T16:03:15.052Z,100717.21
2019-01-09T16:05:39.723Z,100712.97
2019-01-09T16:08:04.710Z,100719.03
2019-01-09T16:10:29.117Z,100727.31
2019-01-09T16:12:53.524Z,100727.41
2019-01-09T16:15:18.584Z,100729.26
2019-01-09T16:17:43.120Z,100739.53
2019-01-09T16:20:16.631Z,100739.48
2019-01-09T16:22:36.687Z,100748.23
2019-01-09T16:25:01.090Z,100740.72
2019-01-09T16:27:25.496Z,100750.45
2019-01-09T16:29:49.886Z,100749.42
2019-01-09T16:32:14.365Z,100749.35
2019-01-09T16:34:38.766Z,100755.67
2019-01-09T16:37:03.201Z,100694.20
2019-01-09T16:39:30.961Z,100759.61
2019-01-09T16:41:53.725Z,100758.22
2019-01-09T16:44:18.126Z,100760.58
2019-01-09T16:46:42.620Z,100768.99
2019-01-09T16:49:07.017Z,100771.01
2019-01-09T16:51:31.402Z,100773.42
2019-01-09T16:53:55.832Z,100767.41
2019-01-09T16:56:20.302Z,100782.49
2019-01-09T16:58:44.989Z,100785.58
2019-01-09T17:01:09.536Z,100786.16
2019-01-09T17:03:33.965Z,100788.23
2019-01-09T17:05:58.365Z,100798.91
2019-01-09T17:08:22.801Z,100800.49
2019-01-09T17:10:47.195Z,100804.88
2019-01-09T17:13:11.609Z,100808.08
2019-01-09T17:15:36.028Z,100809.23
2019-01-09T17:18:00.610Z,100813.64
2019-01-09T17:20:29.307Z,100811.92
2019-01-09T17:22:53.712Z,100816.51
2019-01-09T17:25:18.195Z,100826.66
2019-01-09T17:27:42.663Z,100829.53
2019-01-09T17:30:24.570Z,100829.35
2019-01-09T17:32:48.973Z,100833.77
2019-01-09T17:35:13.447Z,100837.34
2019-01-09T17:37:37.857Z,100851.88
2019-01-09T17:40:02.270Z,100850.89
2019-01-09T17:42:26.666Z,100854.98
2019-01-09T17:44:51.101Z,100858.91
2019-01-09T17:47:30.878Z,100862.94
2019-01-09T17:49:55.305Z,100860.68
2019-01-09T17:52:19.722Z,100868.71
2019-01-09T17:54:44.143Z,100872.96
2019-01-09T17:57:08.545Z,100870.50
2019-01-09T17:59:33.330Z,100879.24
2019-01-09T18:01:57.729Z,100883.19
2019-01-09T18:04:22.125Z,100882.41
2019-01-09T18:06:46.549Z,100884.61
2019-01-09T18:09:10.955Z,100891.05
2019-01-09T18:11:35.381Z,100889.54
2019-01-09T18:13:59.798Z,100901.57
2019-01-09T18:16:24.488Z,100908.19
2019-01-09T18:18:48.965Z,100906.35
2019-01-09T18:21:13.358Z,100911.27
2019-01-09T18:23:37.776Z,100913.19
2019-01-09T18:26:02.196Z,100916.24
2019-01-09T18:28:26.632Z,100923.83
2019-01-09T18:31:03.337Z,100920.19
2019-01-09T18:33:29.098Z,100928.53
2019-01-09T18:36:15.710Z,100935.45
2019-01-09T18:38:48.912Z,100935.91
2019-01-09T18:41:16.356Z,100935.76
2019-01-09T18:43:52.591Z,100943.59
2019-01-09T18:46:37.675Z,100945.10
2019-01-09T18:49:11.113Z,100956.15
2019-01-09T18:51:50.381Z,100952.52
2019-01-09T18:54:14.801Z,100952.18
2019-01-09T18:56:39.271Z,100960.43
2019-01-09T18:59:03.943Z,100960.33
2019-01-09T19:01:28.385Z,100956.99
2019-01-09T19:03:52.777Z,100967.80
2019-01-09T19:06:17.216Z,100971.61
2019-01-09T19:08:41.706Z,100970.42
2019-01-09T19:11:07.758Z,100974.79
2019-01-09T19:13:32.461Z,100982.80
2019-01-09T19:15:56.936Z,100982.86
2019-01-09T19:18:21.420Z,100981.35
2019-01-09T19:20:45.840Z,100992.13
2019-01-09T19:23:10.351Z,100988.02
2019-01-09T19:25:34.745Z,100996.66
2019-01-09T19:27:59.176Z,100998.33
2019-01-09T19:30:26.101Z,101005.09
2019-01-09T19:32:50.522Z,101006.09
2019-01-09T19:35:14.991Z,101014.91
2019-01-09T19:37:39.405Z,101017.69
2019-01-09T19:40:06.652Z,101022.41
2019-01-09T19:42:31.152Z,101022.72
2019-01-09T19:44:55.542Z,101033.15
2019-01-09T19:47:19.950Z,101040.92
2019-01-09T19:49:44.456Z,101044.29
2019-01-09T19:52:08.870Z,101047.32
2019-01-09T19:54:33.393Z,101055.88
2019-01-09T19:56:57.850Z,101052.80
2019-01-09T19:59:22.265Z,101051.92
2019-01-09T20:01:46.752Z,101056.10
2019-01-09T20:04:11.170Z,101062.58
2019-01-09T20:06:35.573Z,101063.72
2019-01-09T20:09:00.058Z,101054.56
2019-01-09T20:11:26.567Z,101065.13
2019-01-09T20:13:50.635Z,101071.91
2019-01-09T20:16:15.057Z,101081.45
2019-01-09T20:18:39.466Z,101079.51
2019-01-09T20:21:04.125Z,101093.92
2019-01-09T20:23:28.593Z,101094.75
2019-01-09T20:25:52.991Z,101102.98
2019-01-09T20:28:17.536Z,101096.70
2019-01-09T20:30:42.052Z,101104.13
2019-01-09T20:33:06.420Z,101105.40
2019-01-09T20:35:30.916Z,101111.30
2019-01-09T20:37:55.379Z,101105.83
2019-01-09T20:40:19.767Z,101113.19
2019-01-09T20:42:44.393Z,101113.63
2019-01-09T20:45:11.662Z,101107.82
2019-01-09T20:47:36.102Z,101123.75
2019-01-09T20:50:00.626Z,101125.72
2019-01-09T20:52:25.210Z,101131.63
2019-01-09T20:54:49.692Z,101125.29
2019-01-09T20:57:14.591Z,101126.22
2019-01-09T20:59:39.016Z,101130.51
2019-01-09T21:02:03.490Z,101132.73
2019-01-09T21:04:27.919Z,101136.72
2019-01-09T21:06:52.335Z,101135.13
2019-01-09T21:09:16.792Z,101131.91
2019-01-09T21:11:44.483Z,101134.81
2019-01-09T21:14:07.471Z,101085.80
2019-01-09T21:16:31.975Z,101144.80
2019-01-09T21:18:56.377Z,101151.17
2019-01-09T21:21:20.836Z,101154.97
2019-01-09T21:23:45.217Z,101162.66
2019-01-09T21:26:09.643Z,101170.50
2019-01-09T21:28:34.027Z,101164.28
2019-01-09T21:30:58.409Z,101165.73
2019-01-09T21:33:22.832Z,101165.22
2019-01-09T21:35:47.238Z,101172.87
2019-01-09T21:38:11.681Z,101168.38
2019-01-09T21:40:36.076Z,101170.73
2019-01-09T21:43:00.545Z,101177.88
2019-01-09T21:45:25.221Z,101183.80
2019-01-09T21:47:49.762Z,101174.68
2019-01-09T21:50:17.559Z,101177.67
2019-01-09T21:52:42.083Z,101180.78
2019-01-09T21:55:07.951Z,101182.19
2019-01-09T21:57:32.357Z,101197.50
2019-01-09T21:59:56.772Z,101200.38
2019-01-09T22:02:25.370Z,101201.14
2019-01-09T22:04:49.807Z,101197.22
2019-01-09T22:07:15.453Z,101203.79
2019-01-09T22:09:39.817Z,101206.87
2019-01-09T22:12:04.330Z,101210.05
2019-01-09T22:14:28.708Z,101217.55
2019-01-09T22:16:53.136Z,101215.84
2019-01-09T22:19:17.519Z,101214.23
2019-01-09T22:21:42.010Z,101214.70
2019-01-09T22:24:06.481Z,101230.58
2019-01-09T22:26:30.923Z,101228.61
2019-01-09T22:28:55.318Z,101229.59
2019-01-09T22:31:19.719Z,101229.53
2019-01-09T22:33:44.127Z,101232.73
2019-01-09T22:36:08.644Z,101230.73
2019-01-09T22:38:33.078Z,101241.39
2019-01-09T22:40:57.471Z,101240.24
2019-01-09T22:43:21.895Z,101244.83
2019-01-09T22:45:46.371Z,101238.64
2019-01-09T22:48:10.789Z,101242.19
2019-01-09T22:50:35.186Z,101246.69
2019-01-09T22:52:59.620Z,101246.27
2019-01-09T22:55:24.016Z,101247.94
2019-01-09T22:57:48.473Z,101247.92
2019-01-09T23:00:34.277Z,101255.77
2019-01-09T23:02:58.751Z,101253.33
2019-01-09T23:05:23.243Z,101251.95
2019-01-09T23:07:47.629Z,101256.97
2019-01-09T23:10:12.842Z,101264.63
2019-01-09T23:12:37.430Z,101253.87
2019-01-09T23:15:01.846Z,101249.21
2019-01-09T23:17:26.245Z,101258.59
2019-01-09T23:19:50.661Z,101261.98
2019-01-09T23:22:15.064Z,101265.01
2019-01-09T23:24:39.450Z,101262.62
2019-01-09T23:27:03.933Z,101261.05
2019-01-09T23:29:28.409Z,101260.42
2019-01-09T23:31:52.876Z,101259.73
2019-01-09T23:34:17.352Z,101268.33
2019-01-09T23:36:43.297Z,101266.64
2019-01-09T23:39:09.914Z,101266.10
2019-01-09T23:41:34.334Z,101270.53
2019-01-09T23:43:58.717Z,101275.92
2019-01-09T23:46:23.168Z,101273.66
2019-01-09T23:48:47.564Z,101279.43
2019-01-09T23:51:12.327Z,101283.23
2019-01-09T23:53:36.733Z,101283.88
2019-01-09T23:56:01.138Z,101289.02
2019-01-09T23:58:25.559Z,101291.28
